Time;durP1;ratioP1;P1;durP2;ratioP2;P2;SDS_P1;SDS_P2;PMS_P1;PMS_P2;Temp;Humidity;BMP_temperature;BMP_pressure;BME280_temperature;BME280_humidity;BME280_pressure;Samples;Min_cycle;Max_cycle;Signal;HPM_P1;HPM_P2
2022/02/17 00:00:59;;;;;;;28.15;5.75;;;12.70;79.60;;;;;;5093244;28;20054;-86
2022/02/17 00:03:28;;;;;;;28.98;5.03;;;12.60;79.50;;;;;;5111195;28;20046;-87
2022/02/17 00:05:56;;;;;;;35.03;6.32;;;12.60;79.40;;;;;;5093435;28;20127;-88
2022/02/17 00:08:23;;;;;;;33.28;6.38;;;12.60;79.10;;;;;;5108934;28;20505;-87
2022/02/17 00:10:50;;;;;;;33.65;6.15;;;12.50;78.90;;;;;;5110807;28;20566;-87
2022/02/17 00:13:17;;;;;;;32.97;5.45;;;12.50;78.60;;;;;;5110851;28;20040;-88
2022/02/17 00:15:44;;;;;;;32.20;6.20;;;12.50;78.40;;;;;;5092896;28;20043;-88
2022/02/17 00:18:21;;;;;;;29.90;6.15;;;12.50;78.30;;;;;;5111103;28;20043;-88
2022/02/17 00:20:55;;;;;;;36.63;6.95;;;12.50;78.20;;;;;;5111284;28;20065;-88
2022/02/17 00:23:26;;;;;;;39.28;6.13;;;12.40;78.10;;;;;;5108487;28;20048;-87
2022/02/17 00:25:54;;;;;;;36.10;7.45;;;12.40;77.90;;;;;;5108818;28;20082;-87
2022/02/17 00:28:21;;;;;;;33.67;6.40;;;12.40;77.80;;;;;;5109320;28;20497;-87
2022/02/17 00:30:48;;;;;;;34.55;6.22;;;12.40;77.70;;;;;;5110610;28;20055;-88
2022/02/17 00:33:18;;;;;;;39.17;6.75;;;12.40;77.50;;;;;;5093165;28;20574;-87
2022/02/17 00:35:45;;;;;;;32.67;6.47;;;12.40;77.40;;;;;;5110762;28;20055;-87
2022/02/17 00:38:12;;;;;;;43.97;8.13;;;12.40;77.30;;;;;;5112765;28;20051;-87
2022/02/17 00:40:39;;;;;;;38.60;7.00;;;12.40;77.30;;;;;;5110148;28;20043;-87
2022/02/17 00:43:06;;;;;;;40.80;7.18;;;12.30;77.20;;;;;;5110681;28;20048;-88
2022/02/17 00:45:34;;;;;;;43.65;6.97;;;12.30;77.10;;;;;;5110579;28;20068;-88
2022/02/17 00:48:01;;;;;;;37.85;7.45;;;12.30;76.90;;;;;;5110583;28;20048;-87
2022/02/17 00:50:28;;;;;;;44.45;8.18;;;12.20;76.80;;;;;;5093970;28;20479;-87
2022/02/17 00:52:56;;;;;;;37.95;6.75;;;12.20;76.60;;;;;;5108233;28;20524;-87
2022/02/17 00:55:23;;;;;;;34.97;7.15;;;12.20;76.50;;;;;;5110436;28;20055;-88
2022/02/17 00:57:50;;;;;;;48.95;7.70;;;12.10;76.40;;;;;;5110432;28;20044;-87
2022/02/17 01:00:17;;;;;;;39.35;7.03;;;12.10;76.30;;;;;;5109275;28;20052;-89
2022/02/17 01:02:43;;;;;;;44.65;8.07;;;12.10;76.10;;;;;;5111192;28;20068;-88
2022/02/17 01:05:10;;;;;;;46.47;7.57;;;12.00;75.90;;;;;;5092789;28;20051;-89
2022/02/17 01:07:38;;;;;;;57.97;9.38;;;12.00;76.00;;;;;;5104298;28;20047;-89
2022/02/17 01:10:05;;;;;;;41.58;7.70;;;12.00;76.00;;;;;;5109052;28;20039;-87
2022/02/17 01:12:32;;;;;;;44.38;8.52;;;12.00;76.00;;;;;;5108117;28;20047;-87
2022/02/17 01:15:06;;;;;;;32.38;7.05;;;12.00;76.10;;;;;;5110315;28;20044;-87
2022/02/17 01:17:33;;;;;;;46.88;8.25;;;11.90;76.10;;;;;;5111622;28;20449;-87
2022/02/17 01:19:59;;;;;;;60.00;10.13;;;11.90;76.30;;;;;;5111267;28;20047;-87
2022/02/17 01:22:26;;;;;;;48.53;8.68;;;11.90;76.40;;;;;;5090753;28;20093;-87
2022/02/17 01:24:53;;;;;;;47.65;8.05;;;11.90;76.40;;;;;;5109988;28;20406;-87
2022/02/17 01:27:20;;;;;;;45.60;8.65;;;11.90;76.40;;;;;;5110126;28;20449;-87
2022/02/17 01:29:47;;;;;;;44.85;7.88;;;11.90;76.40;;;;;;5110165;28;20052;-87
2022/02/17 01:32:14;;;;;;;46.58;8.50;;;11.80;76.30;;;;;;5112200;28;20048;-87
2022/02/17 01:34:42;;;;;;;34.45;7.78;;;11.80;76.30;;;;;;5112682;28;20109;-87
2022/02/17 01:37:08;;;;;;;44.25;8.80;;;11.80;76.10;;;;;;5113544;28;20040;-87
2022/02/17 01:39:36;;;;;;;64.43;10.18;;;11.80;76.10;;;;;;5113961;28;20112;-86
2022/02/17 01:42:10;;;;;;;45.40;8.07;;;11.70;76.00;;;;;;5113953;28;20566;-89
2022/02/17 01:44:48;;;;;;;50.88;9.68;;;11.70;75.80;;;;;;5114307;28;20497;-89
2022/02/17 01:47:16;;;;;;;58.13;9.30;;;11.70;75.70;;;;;;5114889;28;20051;-88
2022/02/17 01:49:47;;;;;;;60.92;10.82;;;11.70;75.60;;;;;;5113363;28;20425;-88
2022/02/17 01:52:15;;;;;;;61.80;10.00;;;11.70;75.70;;;;;;5113476;28;20055;-88
2022/02/17 01:54:44;;;;;;;48.63;9.07;;;11.60;75.70;;;;;;5113567;28;20044;-88
2022/02/17 01:57:18;;;;;;;51.67;9.00;;;11.60;75.90;;;;;;5095593;28;20048;-88
2022/02/17 01:59:46;;;;;;;56.67;10.52;;;11.60;76.00;;;;;;5113509;28;20058;-88
2022/02/17 02:02:13;;;;;;;52.35;9.05;;;11.60;76.10;;;;;;5096270;28;20417;-87
2022/02/17 02:04:41;;;;;;;52.88;8.68;;;11.60;76.20;;;;;;5113278;28;20529;-87
2022/02/17 02:07:08;;;;;;;49.33;9.35;;;11.60;76.20;;;;;;5112950;28;20044;-87
2022/02/17 02:09:36;;;;;;;53.90;9.77;;;11.50;76.20;;;;;;5113475;28;20502;-86
2022/02/17 02:12:04;;;;;;;55.25;10.55;;;11.50;76.20;;;;;;5113328;28;20043;-87
2022/02/17 02:14:31;;;;;;;56.17;9.27;;;11.50;76.20;;;;;;5114760;28;20055;-86
2022/02/17 02:16:59;;;;;;;53.33;8.65;;;11.50;76.10;;;;;;5114164;28;20055;-87
2022/02/17 02:19:26;;;;;;;67.45;10.65;;;11.50;76.00;;;;;;5107241;28;20051;-87
2022/02/17 02:21:53;;;;;;;49.95;9.77;;;11.50;76.00;;;;;;5112761;28;20429;-86
2022/02/17 02:24:20;;;;;;;54.97;10.40;;;11.40;76.00;;;;;;5111715;28;20047;-86
2022/02/17 02:26:47;;;;;;;66.43;11.10;;;11.40;76.00;;;;;;5113244;28;20048;-86
2022/02/17 02:29:13;;;;;;;50.03;10.02;;;11.40;75.90;;;;;;5097267;28;20109;-87
2022/02/17 02:31:40;;;;;;;45.75;9.38;;;11.40;75.90;;;;;;5113070;28;20051;-87
2022/02/17 02:34:07;;;;;;;66.97;11.32;;;11.40;75.80;;;;;;5112777;28;20040;-88
2022/02/17 02:36:35;;;;;;;52.55;9.38;;;11.30;75.80;;;;;;5112366;28;20052;-87
2022/02/17 02:39:04;;;;;;;52.13;8.88;;;11.30;75.60;;;;;;5112747;28;20088;-87
2022/02/17 02:41:31;;;;;;;56.08;10.18;;;11.30;75.40;;;;;;5096045;28;20058;-87
2022/02/17 02:43:59;;;;;;;53.05;9.55;;;11.30;75.30;;;;;;5111033;28;20542;-87
2022/02/17 02:46:26;;;;;;;56.20;10.20;;;11.30;75.30;;;;;;5094356;28;20105;-87
2022/02/17 02:48:56;;;;;;;73.47;10.80;;;11.20;75.30;;;;;;5094417;28;20044;-87
2022/02/17 02:51:23;;;;;;;62.30;10.80;;;11.20;75.50;;;;;;5112113;28;20054;-87
2022/02/17 02:53:50;;;;;;;52.72;10.82;;;11.20;75.60;;;;;;5112530;28;20054;-87
2022/02/17 02:56:17;;;;;;;61.75;10.38;;;11.20;75.70;;;;;;5114480;28;20047;-87
2022/02/17 02:58:44;;;;;;;58.03;10.77;;;11.20;75.90;;;;;;5112246;28;20060;-86
2022/02/17 03:01:11;;;;;;;57.15;10.57;;;11.20;76.00;;;;;;5112215;28;20050;-86
2022/02/17 03:03:38;;;;;;;60.00;11.25;;;11.20;76.10;;;;;;5110598;28;20050;-86
2022/02/17 03:06:05;;;;;;;63.35;11.20;;;11.10;76.20;;;;;;5112208;28;20047;-85
2022/02/17 03:08:32;;;;;;;66.75;10.63;;;11.10;76.20;;;;;;5113716;28;20048;-86
2022/02/17 03:10:59;;;;;;;61.20;10.77;;;11.10;76.20;;;;;;5110871;28;20052;-86
2022/02/17 03:13:26;;;;;;;56.60;10.32;;;11.10;76.10;;;;;;5112044;28;20047;-86
2022/02/17 03:15:53;;;;;;;54.80;10.68;;;11.00;76.00;;;;;;5111894;28;20517;-86
2022/02/17 03:18:19;;;;;;;66.32;10.45;;;11.00;75.90;;;;;;5111800;28;20039;-86
2022/02/17 03:20:47;;;;;;;69.32;11.65;;;11.00;75.70;;;;;;5111877;28;20055;-87
2022/02/17 03:23:14;;;;;;;57.10;10.13;;;11.00;75.60;;;;;;5096040;28;20055;-88
2022/02/17 03:25:41;;;;;;;58.95;11.30;;;11.00;75.60;;;;;;5111749;28;20591;-86
2022/02/17 03:28:08;;;;;;;54.63;10.65;;;10.90;75.60;;;;;;5111745;28;20039;-86
2022/02/17 03:30:35;;;;;;;63.75;10.57;;;10.90;75.50;;;;;;5111709;28;20047;-86
2022/02/17 03:33:02;;;;;;;60.63;10.73;;;10.90;75.40;;;;;;5093425;28;20055;-86
2022/02/17 03:35:29;;;;;;;64.88;11.32;;;10.90;75.30;;;;;;5112944;28;20054;-87
2022/02/17 03:37:56;;;;;;;70.40;11.77;;;10.90;75.20;;;;;;5112388;28;20055;-86
2022/02/17 03:40:23;;;;;;;64.90;11.13;;;10.90;75.00;;;;;;5111384;28;20062;-86
2022/02/17 03:42:50;;;;;;;72.60;11.65;;;10.80;74.90;;;;;;5110184;28;20047;-86
2022/02/17 03:45:17;;;;;;;70.97;11.73;;;10.80;74.80;;;;;;5111514;28;20047;-86
2022/02/17 03:47:44;;;;;;;66.55;11.85;;;10.70;74.70;;;;;;5111282;28;20078;-86
2022/02/17 03:50:12;;;;;;;67.28;11.32;;;10.70;74.60;;;;;;5113305;28;20047;-86
2022/02/17 03:52:41;;;;;;;64.82;12.75;;;10.70;74.50;;;;;;5111235;28;20444;-89
2022/02/17 03:55:10;;;;;;;54.22;10.32;;;10.70;74.50;;;;;;5111012;28;20543;-86
2022/02/17 03:57:37;;;;;;;66.20;11.80;;;10.70;74.50;;;;;;5110501;28;20417;-87
2022/02/17 04:00:05;;;;;;;68.20;11.00;;;10.60;74.50;;;;;;5111133;28;20043;-88
2022/02/17 04:02:32;;;;;;;69.95;11.85;;;10.60;74.50;;;;;;5112390;28;20051;-88
2022/02/17 04:04:59;;;;;;;78.85;13.25;;;10.60;74.50;;;;;;5110873;28;20051;-88
2022/02/17 04:07:25;;;;;;;71.35;13.07;;;10.50;74.60;;;;;;5092959;28;20097;-87
2022/02/17 04:09:54;;;;;;;68.28;11.65;;;10.50;74.70;;;;;;5110984;28;20063;-86
2022/02/17 04:12:21;;;;;;;65.70;11.13;;;10.50;74.80;;;;;;5111019;28;20047;-87
2022/02/17 04:14:48;;;;;;;69.07;12.52;;;10.50;74.90;;;;;;5092987;28;20048;-87
2022/02/17 04:17:15;;;;;;;84.95;12.88;;;10.50;75.10;;;;;;5112598;28;20100;-86
2022/02/17 04:19:42;;;;;;;73.00;12.20;;;10.50;75.20;;;;;;5122010;27;20097;-87
2022/02/17 04:22:09;;;;;;;74.45;12.40;;;10.40;75.30;;;;;;5109462;28;20043;-87
2022/02/17 04:24:36;;;;;;;79.63;12.05;;;10.40;75.40;;;;;;5110831;28;20059;-86
2022/02/17 04:27:04;;;;;;;72.80;12.27;;;10.40;75.50;;;;;;5110994;28;20054;-86
2022/02/17 04:29:30;;;;;;;70.05;12.10;;;10.40;75.60;;;;;;5112313;28;20048;-87
2022/02/17 04:31:57;;;;;;;75.07;11.77;;;10.40;75.60;;;;;;5122607;27;20116;-89
2022/02/17 04:34:24;;;;;;;70.55;12.50;;;10.40;75.70;;;;;;5092443;28;20044;-86
2022/02/17 04:36:52;;;;;;;78.28;12.68;;;10.40;75.70;;;;;;5110500;28;20516;-88
2022/02/17 04:39:19;;;;;;;79.65;12.57;;;10.40;75.80;;;;;;5092681;28;20493;-88
2022/02/17 04:44:31;;;;;;;83.78;13.07;;;10.30;75.80;;;;;;5108840;28;20063;-87
2022/02/17 04:46:58;;;;;;;79.60;13.18;;;10.30;75.80;;;;;;5108865;28;20051;-87
2022/02/17 04:49:25;;;;;;;85.05;13.05;;;10.30;75.80;;;;;;5110224;28;20505;-87
2022/02/17 04:51:52;;;;;;;72.78;13.80;;;10.30;75.80;;;;;;5110378;28;20093;-88
2022/02/17 04:54:19;;;;;;;79.15;13.00;;;10.30;75.80;;;;;;5110401;28;20459;-87
2022/02/17 04:56:46;;;;;;;74.32;12.13;;;10.30;75.80;;;;;;5110486;28;20055;-87
2022/02/17 04:59:13;;;;;;;92.57;14.80;;;10.20;75.80;;;;;;5094472;28;20516;-86
2022/02/17 05:01:40;;;;;;;69.97;13.68;;;10.20;75.80;;;;;;5108637;28;20066;-87
2022/02/17 05:04:07;;;;;;;70.50;11.88;;;10.20;75.70;;;;;;5110309;28;20044;-87
2022/02/17 05:06:34;;;;;;;73.22;12.18;;;10.20;75.70;;;;;;5110278;28;20051;-87
2022/02/17 05:09:02;;;;;;;83.60;12.82;;;10.20;75.70;;;;;;5113838;28;20066;-86
2022/02/17 05:11:31;;;;;;;70.32;12.63;;;10.20;75.70;;;;;;5115757;28;20414;-86
2022/02/17 05:13:58;;;;;;;81.70;13.73;;;10.20;75.70;;;;;;5112620;28;20047;-86
2022/02/17 05:16:27;;;;;;;82.32;13.52;;;10.10;75.70;;;;;;5114349;28;20050;-87
2022/02/17 05:18:54;;;;;;;76.68;13.23;;;10.10;75.70;;;;;;5114369;28;20048;-87
2022/02/17 05:21:21;;;;;;;75.93;12.48;;;10.20;75.60;;;;;;5114224;28;20093;-87
2022/02/17 05:23:49;;;;;;;82.45;13.75;;;10.10;75.50;;;;;;5114231;28;20063;-87
2022/02/17 05:26:17;;;;;;;69.72;12.45;;;10.10;75.40;;;;;;5127563;27;20513;-87
2022/02/17 05:28:43;;;;;;;76.45;12.02;;;10.10;75.40;;;;;;5113768;28;20108;-86
2022/02/17 05:31:11;;;;;;;67.97;12.25;;;10.10;75.30;;;;;;5125232;27;20505;-86
2022/02/17 05:33:38;;;;;;;66.45;12.15;;;10.10;75.30;;;;;;5114175;28;20058;-86
2022/02/17 05:36:05;;;;;;;78.88;12.38;;;10.00;75.30;;;;;;5095967;28;20047;-86
2022/02/17 05:38:33;;;;;;;80.70;12.40;;;10.00;75.20;;;;;;5115056;28;20501;-86
2022/02/17 05:40:59;;;;;;;69.60;13.30;;;10.00;75.20;;;;;;5112646;28;20047;-86
2022/02/17 05:43:26;;;;;;;76.47;13.32;;;10.00;75.20;;;;;;5113474;28;20067;-86
2022/02/17 05:45:53;;;;;;;74.75;13.32;;;10.00;75.20;;;;;;5113628;28;20471;-86
2022/02/17 05:48:20;;;;;;;76.20;13.73;;;10.00;75.20;;;;;;5113739;28;20571;-86
2022/02/17 05:50:47;;;;;;;83.15;12.15;;;10.00;75.30;;;;;;5113486;28;20060;-85
2022/02/17 05:53:14;;;;;;;86.25;12.88;;;10.00;75.30;;;;;;5115773;28;20051;-85
2022/02/17 05:55:41;;;;;;;83.88;12.68;;;10.00;75.40;;;;;;5113434;28;20055;-86
2022/02/17 05:58:11;;;;;;;94.13;13.85;;;9.90;75.40;;;;;;5113232;28;20108;-86
2022/02/17 06:00:40;;;;;;;79.50;13.00;;;10.00;75.50;;;;;;5113335;28;20092;-86
2022/02/17 06:03:07;;;;;;;82.05;13.43;;;9.90;75.60;;;;;;5095467;28;20050;-87
2022/02/17 06:05:34;;;;;;;85.97;12.98;;;9.90;75.70;;;;;;5114593;28;20043;-86
2022/02/17 06:08:01;;;;;;;88.18;12.65;;;9.90;75.80;;;;;;5096548;28;20054;-86
2022/02/17 06:10:28;;;;;;;94.78;13.73;;;9.90;75.90;;;;;;5113188;28;20425;-85
2022/02/17 06:12:55;;;;;;;91.07;15.02;;;9.90;76.00;;;;;;5112924;28;20055;-86
2022/02/17 06:15:22;;;;;;;77.22;12.73;;;9.90;76.10;;;;;;5113298;28;20040;-86
2022/02/17 06:17:49;;;;;;;95.40;14.20;;;9.90;76.20;;;;;;5113081;28;20097;-86
2022/02/17 06:20:16;;;;;;;75.32;12.90;;;9.90;76.30;;;;;;5113505;28;20052;-86
2022/02/17 06:22:50;;;;;;;84.15;14.18;;;9.90;76.40;;;;;;5095001;28;20467;-86
2022/02/17 06:25:21;;;;;;;95.70;13.50;;;9.90;76.40;;;;;;5112899;28;20051;-85
2022/02/17 06:27:49;;;;;;;87.75;12.75;;;9.90;76.50;;;;;;5112575;28;20052;-86
2022/02/17 06:30:17;;;;;;;91.30;12.40;;;9.90;76.60;;;;;;5112947;28;20455;-86
2022/02/17 06:32:48;;;;;;;87.55;13.00;;;9.90;76.60;;;;;;5112993;28;20062;-86
2022/02/17 06:35:21;;;;;;;71.82;12.43;;;9.90;76.70;;;;;;5114828;28;20043;-86
2022/02/17 06:37:50;;;;;;;78.18;12.85;;;9.90;76.60;;;;;;5112628;28;20047;-86
2022/02/17 06:40:19;;;;;;;70.35;12.35;;;9.90;76.60;;;;;;5094527;28;20039;-86
2022/02/17 06:42:46;;;;;;;75.30;12.90;;;9.90;76.60;;;;;;5112317;28;20467;-86
2022/02/17 06:45:14;;;;;;;66.70;11.02;;;10.00;76.60;;;;;;5112757;28;20044;-88
2022/02/17 06:47:41;;;;;;;63.50;12.73;;;10.00;76.50;;;;;;5112869;28;20070;-87
2022/02/17 06:50:09;;;;;;;77.03;13.15;;;10.00;76.30;;;;;;5112279;28;20056;-87
2022/02/17 06:52:36;;;;;;;63.65;10.27;;;9.90;76.10;;;;;;5112436;28;20394;-87
2022/02/17 06:55:04;;;;;;;58.15;10.02;;;10.00;75.90;;;;;;5112479;28;20382;-87
2022/02/17 06:57:31;;;;;;;57.65;10.23;;;9.90;75.80;;;;;;5092508;28;20047;-87
2022/02/17 07:00:02;;;;;;;57.60;10.35;;;10.00;75.60;;;;;;5096129;28;20127;-86
2022/02/17 07:02:33;;;;;;;45.22;9.25;;;10.00;75.60;;;;;;5094704;28;20047;-86
2022/02/17 07:05:02;;;;;;;53.90;9.45;;;9.90;75.40;;;;;;5103081;28;20520;-87
2022/02/17 07:07:30;;;;;;;50.47;8.63;;;9.90;75.20;;;;;;5112072;28;20056;-86
2022/02/17 07:09:57;;;;;;;53.28;9.48;;;9.90;75.00;;;;;;5111522;28;20050;-87
2022/02/17 07:12:24;;;;;;;53.97;8.93;;;9.90;74.80;;;;;;5111872;28;20039;-87
2022/02/17 07:14:53;;;;;;;63.75;9.45;;;9.90;74.70;;;;;;5093717;28;20051;-86
2022/02/17 07:17:20;;;;;;;69.18;9.85;;;9.90;74.60;;;;;;5113386;28;20049;-86
2022/02/17 07:19:47;;;;;;;50.17;9.77;;;9.90;74.60;;;;;;5111769;28;20459;-88
2022/02/17 07:22:14;;;;;;;60.80;11.40;;;9.90;74.60;;;;;;5111244;28;20051;-87
2022/02/17 07:24:41;;;;;;;56.35;8.98;;;9.90;74.60;;;;;;5110625;28;20116;-88
2022/02/17 07:27:09;;;;;;;58.40;9.90;;;9.90;74.70;;;;;;5111657;28;20040;-89
2022/02/17 07:29:36;;;;;;;70.60;12.10;;;9.90;74.80;;;;;;5112485;28;20040;-88
2022/02/17 07:32:06;;;;;;;48.53;10.13;;;9.80;74.90;;;;;;5111637;28;20055;-87
2022/02/17 07:34:33;;;;;;;71.07;11.27;;;9.80;75.00;;;;;;5111102;28;20525;-87
2022/02/17 07:37:00;;;;;;;73.35;12.98;;;9.90;75.10;;;;;;5110014;28;20043;-88
2022/02/17 07:39:27;;;;;;;73.07;11.95;;;9.80;75.30;;;;;;5110537;28;20101;-88
2022/02/17 07:41:55;;;;;;;77.97;12.25;;;9.80;75.40;;;;;;5111002;28;20542;-87
2022/02/17 07:44:26;;;;;;;76.78;13.30;;;9.80;75.50;;;;;;5113246;28;20040;-87
2022/02/17 07:46:54;;;;;;;80.05;12.98;;;9.70;75.70;;;;;;5108562;28;20055;-87
2022/02/17 07:49:21;;;;;;;77.07;12.25;;;9.80;75.80;;;;;;5110766;28;20051;-86
2022/02/17 07:51:48;;;;;;;82.07;12.27;;;9.80;76.00;;;;;;5111040;28;20422;-86
2022/02/17 07:54:15;;;;;;;89.75;12.98;;;9.70;76.10;;;;;;5110528;28;20447;-86
2022/02/17 07:56:42;;;;;;;80.20;12.20;;;9.80;76.30;;;;;;5110978;28;20455;-85
2022/02/17 07:59:09;;;;;;;72.28;12.10;;;9.80;76.40;;;;;;5112992;28;20524;-85
2022/02/17 08:01:36;;;;;;;70.97;12.52;;;9.80;76.50;;;;;;5110445;28;20055;-86
2022/02/17 08:04:02;;;;;;;76.60;11.77;;;9.80;76.60;;;;;;5110642;28;20046;-86
2022/02/17 08:06:30;;;;;;;68.45;10.63;;;9.80;76.60;;;;;;5110810;28;20512;-86
2022/02/17 08:08:57;;;;;;;69.57;11.50;;;9.80;76.70;;;;;;5094349;28;20051;-86
2022/02/17 08:11:25;;;;;;;70.85;11.48;;;9.80;76.70;;;;;;5112810;28;20055;-85
2022/02/17 08:13:53;;;;;;;63.97;11.20;;;9.80;76.70;;;;;;5110465;28;20044;-86
2022/02/17 08:16:20;;;;;;;62.90;10.52;;;9.80;76.70;;;;;;5108666;28;20048;-86
2022/02/17 08:18:47;;;;;;;66.25;11.27;;;9.80;76.70;;;;;;5110660;28;20043;-86
2022/02/17 08:21:34;;;;;;;82.75;12.32;;;9.80;76.70;;;;;;5110512;28;20109;-85
2022/02/17 08:24:02;;;;;;;65.78;10.57;;;9.80;76.70;;;;;;5109732;28;20051;-85
2022/02/17 08:26:35;;;;;;;56.67;9.52;;;9.80;76.70;;;;;;5111478;28;20167;-85
2022/02/17 08:29:02;;;;;;;53.08;9.93;;;9.90;76.70;;;;;;5111848;28;20039;-86
2022/02/17 08:31:29;;;;;;;56.03;10.40;;;9.90;76.70;;;;;;5109943;28;20051;-85
2022/02/17 08:33:56;;;;;;;59.03;10.15;;;9.90;76.70;;;;;;5110287;28;20088;-86
2022/02/17 08:36:24;;;;;;;54.97;9.02;;;9.90;76.60;;;;;;5110447;28;20519;-85
2022/02/17 08:38:51;;;;;;;74.72;9.88;;;9.90;76.60;;;;;;5091580;28;20505;-86
2022/02/17 08:41:18;;;;;;;46.22;9.00;;;9.90;76.50;;;;;;5094185;28;20518;-86
2022/02/17 08:43:46;;;;;;;61.00;9.07;;;9.90;76.40;;;;;;5109720;28;20044;-86
2022/02/17 08:46:14;;;;;;;55.35;8.60;;;9.90;76.40;;;;;;5109897;28;20140;-85
2022/02/17 08:48:42;;;;;;;72.72;10.45;;;9.90;76.30;;;;;;5110105;28;20046;-85
2022/02/17 08:51:09;;;;;;;55.15;9.43;;;9.90;76.30;;;;;;5105948;28;20059;-86
2022/02/17 08:53:36;;;;;;;51.42;10.07;;;10.00;76.20;;;;;;5098894;28;20134;-88
2022/02/17 08:56:03;;;;;;;59.17;10.23;;;9.90;76.10;;;;;;5096599;28;20048;-87
2022/02/17 08:58:31;;;;;;;58.80;9.00;;;10.00;76.00;;;;;;5096142;28;20101;-90
2022/02/17 09:00:59;;;;;;;54.03;9.90;;;10.00;76.00;;;;;;5095797;28;20498;-89
2022/02/17 09:03:29;;;;;;;55.10;9.68;;;10.00;75.90;;;;;;5096150;28;20051;-89
2022/02/17 09:05:57;;;;;;;72.38;10.45;;;10.00;75.90;;;;;;5091760;28;20040;-88
2022/02/17 09:08:41;;;;;;;58.95;9.50;;;10.10;75.80;;;;;;5107861;28;20047;-88
2022/02/17 09:11:10;;;;;;;61.22;10.45;;;10.10;75.80;;;;;;5091654;28;20148;-87
2022/02/17 09:13:38;;;;;;;57.22;9.02;;;10.10;75.70;;;;;;5096000;28;20044;-88
2022/02/17 09:16:05;;;;;;;56.35;9.23;;;10.10;75.60;;;;;;5097743;28;20544;-88
2022/02/17 09:18:32;;;;;;;51.47;9.50;;;10.20;75.70;;;;;;5092285;28;20505;-90
2022/02/17 09:20:59;;;;;;;61.92;10.93;;;10.20;75.70;;;;;;5109728;28;20055;-89
2022/02/17 09:23:26;;;;;;;63.95;10.98;;;10.20;75.70;;;;;;5107806;28;20126;-88
2022/02/17 09:25:53;;;;;;;61.25;10.43;;;10.20;75.70;;;;;;5090932;28;20047;-88
2022/02/17 09:28:21;;;;;;;66.70;10.45;;;10.30;75.80;;;;;;5100237;28;20394;-88
2022/02/17 09:30:49;;;;;;;59.22;10.25;;;10.30;75.80;;;;;;5104457;28;20054;-88
2022/02/17 09:33:16;;;;;;;64.18;10.82;;;10.30;75.80;;;;;;5094374;28;20055;-88
2022/02/17 09:35:43;;;;;;;63.95;10.65;;;10.40;75.90;;;;;;5092996;28;20056;-89
2022/02/17 09:38:13;;;;;;;70.15;10.80;;;10.40;75.90;;;;;;5095761;28;20052;-89
2022/02/17 09:40:42;;;;;;;71.50;11.65;;;10.40;75.90;;;;;;5095874;28;20106;-89
2022/02/17 09:43:10;;;;;;;68.13;10.68;;;10.40;75.90;;;;;;5081785;28;20055;-89
2022/02/17 09:45:43;;;;;;;61.55;9.68;;;10.50;75.90;;;;;;5106254;28;20056;-90
2022/02/17 09:48:11;;;;;;;65.70;10.80;;;10.50;75.70;;;;;;5076812;28;20490;-88
2022/02/17 09:50:39;;;;;;;56.83;10.68;;;10.60;75.70;;;;;;5092800;28;20052;-89
2022/02/17 09:53:06;;;;;;;68.22;10.82;;;10.60;75.70;;;;;;5082672;28;20048;-89
2022/02/17 09:55:33;;;;;;;66.28;9.85;;;10.70;75.60;;;;;;5106567;28;20141;-88
2022/02/17 09:58:01;;;;;;;56.35;10.15;;;10.80;75.60;;;;;;5106898;28;20047;-88
2022/02/17 10:00:28;;;;;;;52.83;9.65;;;10.90;75.50;;;;;;5097991;28;20048;-89
2022/02/17 10:03:20;;;;;;;51.10;9.52;;;11.00;75.30;;;;;;5096027;28;20141;-88
2022/02/17 10:06:07;;;;;;;58.75;10.43;;;11.10;75.00;;;;;;5111292;28;20768;-88
2022/02/17 10:08:36;;;;;;;56.38;10.35;;;11.10;74.60;;;;;;5110436;28;20197;-88
2022/02/17 10:11:05;;;;;;;52.47;9.77;;;11.20;74.50;;;;;;5083790;28;20048;-88
2022/02/17 10:13:33;;;;;;;51.65;9.63;;;11.30;74.30;;;;;;5099031;28;20461;-88
2022/02/17 10:16:01;;;;;;;53.08;9.18;;;11.40;74.10;;;;;;5100092;28;20051;-88
2022/02/17 10:18:30;;;;;;;47.70;9.18;;;11.40;74.00;;;;;;5110584;28;20074;-88
2022/02/17 10:21:07;;;;;;;45.72;8.60;;;11.50;73.80;;;;;;5095121;28;20071;-90
2022/02/17 10:23:40;;;;;;;46.25;8.18;;;11.60;73.60;;;;;;5107012;28;20063;-88
2022/02/17 10:26:20;;;;;;;52.63;9.40;;;11.70;73.30;;;;;;5098950;28;20079;-89
2022/02/17 10:28:57;;;;;;;61.83;9.75;;;11.80;73.10;;;;;;5098663;28;20261;-89
2022/02/17 10:31:29;;;;;;;45.83;8.48;;;11.90;72.90;;;;;;5091486;28;20048;-89
2022/02/17 10:33:59;;;;;;;45.28;7.38;;;11.90;72.70;;;;;;5106151;28;20048;-88
2022/02/17 10:36:42;;;;;;;36.03;7.65;;;12.00;72.40;;;;;;5097808;28;20051;-89
2022/02/17 10:39:13;;;;;;;36.28;7.25;;;12.10;72.00;;;;;;5096141;28;20055;-88
2022/02/17 10:42:02;;;;;;;35.72;6.80;;;12.10;71.60;;;;;;5096156;28;20045;-88
2022/02/17 10:44:31;;;;;;;31.13;5.68;;;12.20;71.10;;;;;;5093274;28;20056;-89
2022/02/17 10:47:16;;;;;;;32.80;6.65;;;12.20;70.70;;;;;;5099332;28;20059;-89
2022/02/17 10:49:50;;;;;;;43.38;6.60;;;12.30;70.30;;;;;;5098009;28;20430;-89
2022/02/17 10:52:36;;;;;;;32.13;6.13;;;12.40;70.00;;;;;;5098175;28;20048;-88
2022/02/17 10:55:20;;;;;;;30.95;6.55;;;12.40;69.70;;;;;;5100379;28;20047;-88
2022/02/17 10:57:47;;;;;;;34.22;5.75;;;12.40;69.40;;;;;;5094002;28;20055;-88
2022/02/17 11:00:17;;;;;;;31.85;5.85;;;12.40;69.10;;;;;;5092422;28;20039;-88
2022/02/17 11:02:46;;;;;;;29.58;5.50;;;12.40;68.90;;;;;;5109624;28;20497;-88
2022/02/17 11:05:14;;;;;;;25.25;5.00;;;12.50;68.60;;;;;;5109280;28;20494;-88
2022/02/17 11:07:43;;;;;;;24.38;4.68;;;12.50;68.30;;;;;;5099402;28;20052;-88
2022/02/17 11:10:11;;;;;;;28.42;5.43;;;12.50;68.10;;;;;;5098055;28;20036;-89
2022/02/17 11:12:39;;;;;;;26.08;4.45;;;12.60;68.00;;;;;;5081780;28;20052;-89
2022/02/17 11:15:08;;;;;;;29.10;4.88;;;12.60;67.90;;;;;;5109851;28;20044;-88
2022/02/17 11:17:40;;;;;;;24.33;4.90;;;12.60;67.60;;;;;;5090695;28;20074;-88
2022/02/17 11:20:17;;;;;;;19.75;4.80;;;12.70;67.10;;;;;;5097593;28;20056;-88
2022/02/17 11:22:47;;;;;;;24.20;4.72;;;12.70;66.70;;;;;;5093175;28;20056;-87
2022/02/17 11:25:31;;;;;;;22.10;4.88;;;12.70;66.40;;;;;;5105644;28;20413;-88
2022/02/17 11:28:04;;;;;;;25.38;5.03;;;12.70;66.20;;;;;;5105012;28;20452;-90
2022/02/17 11:30:35;;;;;;;23.65;4.88;;;12.70;66.00;;;;;;5098241;28;20089;-90
2022/02/17 11:33:27;;;;;;;25.50;4.65;;;12.70;65.90;;;;;;5110390;28;20131;-88
2022/02/17 11:36:24;;;;;;;27.27;4.97;;;12.70;65.60;;;;;;5091780;28;20418;-88
2022/02/17 11:38:56;;;;;;;23.45;4.10;;;12.60;65.40;;;;;;5109444;28;20055;-86
2022/02/17 11:41:28;;;;;;;22.73;4.03;;;12.70;65.20;;;;;;5097274;28;20059;-89
2022/02/17 11:44:08;;;;;;;15.95;3.55;;;12.70;65.00;;;;;;5091841;28;20048;-89
2022/02/17 11:46:41;;;;;;;20.42;3.72;;;12.70;64.90;;;;;;5096946;28;20507;-89
2022/02/17 11:49:34;;;;;;;15.93;3.90;;;12.70;64.80;;;;;;5097467;28;20052;-88
2022/02/17 11:52:14;;;;;;;19.80;3.75;;;12.70;64.40;;;;;;5096666;28;20105;-88
2022/02/17 11:54:42;;;;;;;21.08;4.32;;;12.70;63.80;;;;;;5098657;28;20047;-88
2022/02/17 11:57:32;;;;;;;19.33;3.72;;;12.70;63.30;;;;;;5109041;28;20043;-88
2022/02/17 12:00:25;;;;;;;23.13;4.30;;;12.70;62.90;;;;;;5094281;28;20628;-88
2022/02/17 12:02:55;;;;;;;24.13;4.30;;;12.70;62.80;;;;;;5108996;28;20047;-88
2022/02/17 12:05:22;;;;;;;22.90;4.13;;;12.70;62.90;;;;;;5096696;28;20131;-87
2022/02/17 12:07:49;;;;;;;27.98;4.40;;;12.70;63.10;;;;;;5096908;28;20501;-85
2022/02/17 12:10:33;;;;;;;21.92;4.00;;;12.70;63.30;;;;;;5097038;28;20040;-87
2022/02/17 12:13:01;;;;;;;23.00;4.45;;;12.70;63.60;;;;;;5096766;28;20044;-86
2022/02/17 12:15:28;;;;;;;20.00;4.20;;;12.70;63.70;;;;;;5096249;28;20517;-88
2022/02/17 12:17:57;;;;;;;24.67;5.15;;;12.70;63.50;;;;;;5092193;28;20063;-88
2022/02/17 12:20:30;;;;;;;18.83;4.22;;;12.70;63.20;;;;;;5096368;28;20048;-86
2022/02/17 12:23:09;;;;;;;22.25;4.25;;;12.70;63.10;;;;;;5106847;28;20059;-87
2022/02/17 12:25:44;;;;;;;20.92;4.40;;;12.60;63.20;;;;;;5100156;28;20055;-86
2022/02/17 12:28:16;;;;;;;18.75;3.35;;;12.60;63.30;;;;;;5105038;28;20039;-87
2022/02/17 12:30:52;;;;;;;24.48;3.85;;;12.60;63.40;;;;;;5106167;28;20047;-87
2022/02/17 12:33:26;;;;;;;27.20;4.40;;;12.50;63.30;;;;;;5094958;28;20471;-87
2022/02/17 12:36:08;;;;;;;22.83;4.13;;;12.60;63.30;;;;;;5091856;28;20051;-86
2022/02/17 12:38:36;;;;;;;21.70;4.10;;;12.50;63.40;;;;;;5089587;28;20058;-88
2022/02/17 12:41:08;;;;;;;23.98;4.03;;;12.50;63.30;;;;;;5096978;28;20048;-87
2022/02/17 12:43:38;;;;;;;19.67;3.83;;;12.50;63.10;;;;;;5095848;28;20047;-87
2022/02/17 12:46:12;;;;;;;21.67;3.65;;;12.50;63.00;;;;;;5096689;28;20128;-87